Carlos Ibañez

Chief Scout - Osasuna
3 Dec 2028
Sunday
Process

Personality

Adaptability (1) Ambition (7) Controversy (18) Loyalty (14) Pressure (12) Professionalism (19) Sportsmanship (18) Temperament (19)

Profile

Coaching Style Democratic
License Continental Pro
Determination 7
Man Management 10
Motivating 10
Discipline 11
Job Satisfaction
100%
Fatigue
0%
Role Chief Scout
Wage 52.4K p/w
Contract 14.03.2030

Performance

Behaviour Good
Training Effectiveness
50%
Player Development
60%
Injury Prevention
40%
Tactical Implementation
45%

Recent Events

Attended a recruitment meeting now
Recommended a transfer target now
Recommended a transfer target now
Attended a recruitment meeting 7d ago
Recommended a transfer target 7d ago
Recommended a transfer target 7d ago
Attended a recruitment meeting 7d ago
Observed a match 7d ago

Currently Monitoring

153
Player Club Status Ability Confidence Watched Last Observed Latest Vote
Adam Jakobsen Castellón Lost 126 / 122 93% 1 14.08.2028 Approve
Luis Otávio Orlando City Active 113 / 124 40% 2 07.08.2028 -
Alessio Insignito Spezia Active 107 / 110 40% 1 07.08.2028 -
Antonio Puertas Albacete Lost 132 / 122 90% 1 31.07.2028 -
Trey Nyoni Rotherham United Active 144 / 148 40% 6 24.07.2028 -
Mirza Ćatović VfB Stuttgart Lost 127 / 124 40% 2 17.07.2028 -
Federico Matarán Giana Erminio Active 105 / 119 40% 1 17.07.2028 -
José Arnáiz Granada Lost 132 / 127 90% 1 10.07.2028 -
Stanislav Coufal Pribram Active 99 / 122 40% 1 10.07.2028 -
Ayden Heaven Portsmouth Active 147 / 155 40% 5 03.07.2028 -
Tobías Ramírez River Plate Active 129 / 130 40% 1 03.07.2028 -
Pau Cubarsí Real Sociedad Active 161 / 163 40% 8 26.06.2028 -
Tobías Ramírez River Plate Lost 128 / 132 40% 1 26.06.2028 -
Marc Bernal Sevilla Active 150 / 157 40% 7 19.06.2028 -
Christos Mouzakitis Hull City Active 138 / 149 40% 4 19.06.2028 -
Rubén Sobrino Cultural Leonesa Lost 122 / 129 90% 1 06.06.2028 -
Honest Ahanor Atalanta Active 136 / 146 40% 4 31.05.2028 -
Josh Nichols Oldham Athletic Active 121 / 132 40% 4 31.05.2028 -
Kiani Inge Groningen Active 111 / 116 40% 1 31.05.2028 -
Luca Meirelles Kudrivka Active 121 / 121 40% 1 03.01.2028 -
Juan Manuel Villalba Tigre Active 123 / 130 40% 4 31.12.2027 -
Nazareno Roselli Defensa y Justicia Active 111 / 123 40% 4 29.12.2027 -
Alejandro Almaraz NK Celje Active 114 / 105 40% 3 28.12.2027 -
Victor Froholdt Porto Active 152 / 158 40% 4 28.12.2027 -
Lucas Høgsberg RC Strasbourg Active 142 / 147 40% 4 27.12.2027 -
Victor Hernandez Santa Fe Active 120 / 134 40% 15 26.12.2027 -
Hugo Rojas Instituto Active 108 / 111 40% 3 26.12.2027 -
Izan Merino Málaga Active 132 / 132 40% 6 23.12.2027 -
Josh Acheampong Everton Active 144 / 143 40% 2 23.12.2027 -
Kauã Moraes Flamengo Active 134 / 126 40% 5 20.12.2027 -
Jorge Salinas Racing Santander Active 132 / 127 40% 3 15.12.2027 -
Celías Ingenthron Platense Active 117 / 128 40% 4 13.12.2027 -
Héctor Fort Real Sociedad Active 138 / 138 40% 6 12.12.2027 -
Matias Siltanen Malmo FF Active 125 / 121 40% 2 10.12.2027 -
Esquerdinha Notts County Active 122 / 129 40% 3 07.12.2027 -
Archie Gray Southampton Active 152 / 155 40% 5 05.12.2027 -
Agustín Obregón River Plate Active 110 / 119 40% 2 01.12.2027 -
Matteo Pérez Vinlöf Dinamo Zagreb Active 122 / 134 40% 2 30.11.2027 -
Agustín Medina Lanús Active 121 / 134 40% 3 23.11.2027 -
Adrian Skogmar Malmo FF Active 113 / 114 40% 3 17.11.2027 -
Hugo Lamy Elche Active 101 / 104 30% 1 / 1m 03.11.2027 -
Caleb Yirenkyi Coventry City Active 139 / 145 40% 5 02.11.2027 -
Giovanni Leoni Lincoln City Active 136 / 142 40% 1 02.11.2027 -
Ulises Giménez River Plate Active 107 / 126 40% 4 10.10.2027 -
Enzo Cardozo Al-Nassr Active 111 / 126 40% 1 10.10.2027 -
Valente Pierani Estudiantes Active 110 / 116 40% 1 24.09.2027 -
Mbekezeli Mbokazi Chicago Fire Active 133 / 131 40% 2 12.09.2027 -
Lucas Bergvall Tottenham Active 153 / 160 40% 3 08.09.2027 -
José Cavadia Aguilas Doradas Active 102 / 112 40% 1 07.09.2027 -
Gustavo Albarracín Alavés Active 120 / 125 40% 1 16.08.2027 -
Gianluca Prestianni Benfica Active 139 / 145 40% 6 03.06.2027 -
Jan Virgili Club Brugge Active 134 / 132 40% 7 03.06.2027 -
Gorka Gorosabel Real Sociedad Active 109 / 115 40% 6 28.05.2027 -
Gessime Yassine RC Strasbourg Active 119 / 132 40% 1 28.05.2027 -
Yael Padilla Tijuana Active 107 / 119 40% 8 24.05.2027 -
Kirill Glebov CSKA Moscow Active 124 / 121 40% 10 23.05.2027 -
Jonathan Asp-Jensen Deportivo La Coruña Active 118 / 117 40% 6 23.05.2027 -
Othmane Maamma Watford Active 127 / 130 40% 5 21.05.2027 -
William Gomes Porto Active 144 / 143 40% 3 20.05.2027 -
Riley Owen Stevenage Active 101 / 103 40% 1 20.05.2027 -
Mohamadou Kanté Crawley Town Active 119 / 126 40% 8 19.05.2027 -
Gomolemo Kekana Maritzburg United Active 102 / 118 40% 1 19.05.2027 -
Samir El Mourabet RC Strasbourg Active 125 / 131 40% 2 16.05.2027 -
Romelle Donovan Brentford Active 124 / 126 40% 4 12.05.2027 -
Yussif Saidu Zaragoza Active 123 / 120 40% 2 12.05.2027 -
Leo Castledine Middlesbrough Active 130 / 135 40% 5 11.05.2027 -
Louis Leroux FC Nantes Active 127 / 123 40% 1 10.05.2027 -
Rafael Moreno Atletico Venezuela Active 107 / 105 40% 1 10.05.2027 -
Lander Astiazarán Real Sociedad Active 105 / 120 40% 2 09.05.2027 -
Sindre Walle Egeli Udinese Active 128 / 133 40% 5 06.05.2027 -
Ethan Williams Peterborough United Active 116 / 121 40% 4 05.05.2027 -
Mateus Mané Burnley Active 137 / 148 40% 2 04.05.2027 -
Olívio Tomé Benfica Active 113 / 107 40% 3 02.05.2027 -
Chemsdine Talbi Sunderland Active 141 / 142 40% 8 29.04.2027 -
Lovro Zvonarek Estrela da Amadora Active 123 / 123 40% 2 24.04.2027 -
Mathys Tel Tottenham Active 142 / 151 40% 3 20.04.2027 -
Nestory Irankunda Watford Active 124 / 124 40% 1 20.04.2027 -
Oscar Schwartau Norwich City Active 117 / 126 40% 5 09.04.2027 -
Manu Rodríguez Gijón Active 105 / 117 40% 3 05.04.2027 -
Bazoumana Touré Newcastle United Active 135 / 149 40% 1 30.03.2027 -
Lucas Ferreira Shakhtar Active 124 / 137 40% 1 30.03.2027 -
Rocco Vata Watford Active 120 / 123 40% 3 28.03.2027 -
Luís Guilherme Sporting CP Active 130 / 136 40% 1 26.03.2027 -
David Mella Deportivo La Coruña Active 134 / 142 40% 2 21.03.2027 -
Malick Fofana Sunderland Active 144 / 144 40% 4 19.03.2027 -
Nikolaus Wurmbrand Girona Active 118 / 125 40% 1 18.03.2027 -
Antoni Milambo Brentford Active 140 / 147 40% 2 17.03.2027 -
Nico O'Reilly Manchester City Active 154 / 151 40% 5 10.03.2027 -
Yusi Alavés Active 124 / 135 40% 2 06.03.2027 -
Veljko Radosavljević Cukaricki Active 110 / 92 40% 1 23.02.2027 -
Tibe De Vlieger KAA Gent Active 101 / 111 40% 3 18.02.2027 -
Dehmaine Tabibou FC Nantes Active 121 / 125 40% 1 14.02.2027 -
Martin Gjorgievski Zbrojovka Brno Active 116 / 119 40% 1 13.02.2027 -
Andrés Martín Racing Santander Active 136 / 135 40% 6 25.01.2027 -
Troy Parrott Betis Active 136 / 134 40% 2 25.01.2027 -
Jorge De Frutos Rayo Vallecano Active 155 / 143 40% 1 25.01.2027 -
Omar El Hilali Espanyol Active 148 / 145 40% 1 11.01.2027 -
Marvin Keller Chelsea Active 136 / 137 67% 1 01.01.2027 Approve
Stanislav Agkatsev Brentford Active 132 / 133 66% 1 01.01.2027 Approve
Iliman N'Diaye Everton Active 154 / 165 40% 4 31.12.2026 -
Luis Caicedo Spartak 1918 Active 98 / 92 40% 2 31.12.2026 -
Christantus Uche Getafe Active 132 / 138 40% 3 30.12.2026 -
Chupete Málaga Active 133 / 135 40% 2 29.12.2026 Needs More Info
Alexis Cuello San Lorenzo Active 129 / 120 40% 1 26.12.2026 -
Diego López Valencia Active 139 / 130 40% 3 25.12.2026 -
Pau Víctor Braga Active 141 / 129 40% 1 24.12.2026 -
Yeremy Pino Crystal Palace Active 153 / 157 40% 1 24.12.2026 -
Rodrigo Muniz Fulham Active 139 / 138 40% 3 21.12.2026 -
Ricardo Pepi Mallorca Active 141 / 142 40% 1 20.12.2026 -
Manu Koné AS Roma Active 164 / 159 40% 1 17.12.2026 -
Abel Ruiz Girona Active 138 / 142 40% 4 13.12.2026 -
Georginio Rutter Brighton Active 145 / 143 40% 3 12.12.2026 -
Isaac Romero Sevilla Active 138 / 146 40% 3 12.12.2026 -
Pablo Barrios Atlético Madrid Active 152 / 168 40% 2 12.12.2026 -
Roberto Fernández Braga Active 142 / 133 40% 3 07.12.2026 -
Lucas Varaldo Morelia Active 115 / 126 40% 1 07.12.2026 -
Duk Atlas Active 124 / 102 40% 2 06.12.2026 -
Peque Real Sociedad Active 139 / 133 40% 2 02.12.2026 -
Mikel Jauregizar Athletic Bilbao Active 161 / 161 40% 1 02.12.2026 -
James Bacca La Equidad Active 122 / 132 40% 2 24.11.2026 -
Ez Abde Betis Active 142 / 158 40% 1 20.11.2026 -
Álex Baena Atlético Madrid Active 164 / 158 40% 1 20.11.2026 -
Alejandro Piedrahita Deportivo Pereira Active 124 / 133 40% 1 18.11.2026 -
Oihan Sancet Athletic Bilbao Active 160 / 157 40% 1 18.11.2026 -
Ferran Torres Paris Saint-Germain Active 160 / 171 40% 1 18.11.2026 -
José Alvarado Leon Active 118 / 116 40% 1 16.11.2026 -
Kyriani Sabbe Club Brugge Active 125 / 126 40% 1 13.11.2026 -
Jonathan Pérez Cruz Azul Active 95 / 108 40% 1 12.11.2026 -
Justo Giani Umraniyespor Active 113 / 118 40% 1 10.11.2026 -
Khvicha Kvaratskhelia Paris Saint-Germain Active 172 / 166 40% 1 09.11.2026 -
Kevin Fulham Active 146 / 148 40% 1 09.11.2026 -
Nico Williams Athletic Bilbao Active 171 / 174 40% 1 09.11.2026 -
José Ángel Carmona Sevilla Active 143 / 155 40% 1 07.11.2026 -
Lautaro Vargas Unión de Santa Fe Active 116 / 124 40% 2 05.11.2026 -
Alexander Díaz Deportivo Riestra Active 122 / 104 40% 1 03.11.2026 -
Pau Navarro Villarreal Active 136 / 147 40% 2 08.10.2026 -
Santiago Fernández Talleres Active 125 / 129 40% 4 06.10.2026 -
Ignacio Ovando Rosario Central Active 92 / 108 40% 1 27.09.2026 -
Alan Forneris Racing Club Active 122 / 107 40% 2 23.09.2026 -
Facundo Di Biasi Gimnasia La Plata Active 117 / 126 40% 1 18.09.2026 -
Gonzalo Bordón Independiente Active 108 / 109 40% 1 11.09.2026 -
Ian Garguez Palestino Active 100 / 104 40% 1 10.09.2026 -
Kobbie Mainoo Manchester United Active 153 / 160 40% 1 08.09.2026 -
Valentín Aguiñagalde Temperley Active 112 / 105 40% 1 08.09.2026 -
João Neves Paris Saint-Germain Active 158 / 173 40% 1 01.09.2026 -
Léyder Morán Once Caldas Active 109 / 104 40% 1 01.09.2026 -
Arthur Okonkwo Wrexham Active 111 / 121 40% 1 27.08.2026 -
Gonçalo Guedes Real Sociedad Active 142 / 141 40% 1 25.08.2026 -
Radek Vítek Middlesbrough Active 124 / 141 40% 1 17.08.2026 -
Javi Puado Espanyol Active 141 / 135 40% 1 03.08.2026 -
Mikel Oyarzábal Real Sociedad Active 160 / 159 40% 1 03.08.2026 -
Ousmane Dembélé Paris Saint-Germain Active 183 / 185 40% 1 01.08.2026 -
Gabriel Martinelli Arsenal Active 163 / 167 40% 1 01.08.2026 -